sensor_id;sensor_type;location;lat;lon;timestamp;pressure;altitude;pressure_sealevel;temperature;humidity
55576;BME280;41437;45.478;9.116;2022-10-22T00:03:02;99739.56;;;16.58;100.00
55576;BME280;41437;45.478;9.116;2022-10-22T00:06:04;99760.31;;;16.66;100.00
55576;BME280;41437;45.478;9.116;2022-10-22T00:09:06;99757.53;;;16.66;100.00
55576;BME280;41437;45.478;9.116;2022-10-22T00:12:08;99748.38;;;16.65;100.00
55576;BME280;41437;45.478;9.116;2022-10-22T00:15:10;99733.63;;;16.65;100.00
55576;BME280;41437;45.478;9.116;2022-10-22T00:18:13;99728.06;;;16.65;100.00
55576;BME280;41437;45.478;9.116;2022-10-22T00:21:16;99707.69;;;16.69;100.00
55576;BME280;41437;45.478;9.116;2022-10-22T00:24:17;99714.38;;;16.68;100.00
55576;BME280;41437;45.478;9.116;2022-10-22T00:27:19;99710.25;;;16.66;100.00
55576;BME280;41437;45.478;9.116;2022-10-22T00:30:20;99708.44;;;16.75;100.00
55576;BME280;41437;45.478;9.116;2022-10-22T00:33:23;99700.31;;;16.78;100.00
55576;BME280;41437;45.478;9.116;2022-10-22T00:36:25;99708.66;;;16.78;100.00
55576;BME280;41437;45.478;9.116;2022-10-22T00:39:27;99729.56;;;16.76;100.00
55576;BME280;41437;45.478;9.116;2022-10-22T00:42:29;99729.50;;;16.81;100.00
55576;BME280;41437;45.478;9.116;2022-10-22T00:45:31;99730.59;;;16.80;100.00
55576;BME280;41437;45.478;9.116;2022-10-22T00:48:34;99710.25;;;16.66;100.00
55576;BME280;41437;45.478;9.116;2022-10-22T00:51:36;99721.75;;;16.78;100.00
55576;BME280;41437;45.478;9.116;2022-10-22T00:54:37;99719.56;;;16.75;100.00
55576;BME280;41437;45.478;9.116;2022-10-22T00:57:40;99716.50;;;16.76;100.00
55576;BME280;41437;45.478;9.116;2022-10-22T01:00:42;99713.41;;;16.78;100.00
55576;BME280;41437;45.478;9.116;2022-10-22T01:03:46;99708.44;;;16.75;100.00
55576;BME280;41437;45.478;9.116;2022-10-22T01:06:48;99702.28;;;16.78;100.00
55576;BME280;41437;45.478;9.116;2022-10-22T01:10:00;99689.78;;;16.75;100.00
55576;BME280;41437;45.478;9.116;2022-10-22T01:13:12;99680.13;;;16.73;100.00
55576;BME280;41437;45.478;9.116;2022-10-22T01:16:21;99660.38;;;16.69;100.00
55576;BME280;41437;45.478;9.116;2022-10-22T01:19:39;99672.88;;;16.72;100.00
55576;BME280;41437;45.478;9.116;2022-10-22T01:22:54;99664.81;;;16.70;100.00
55576;BME280;41437;45.478;9.116;2022-10-22T01:26:04;99662.03;;;16.70;100.00
55576;BME280;41437;45.478;9.116;2022-10-22T01:29:10;99658.97;;;16.72;100.00
55576;BME280;41437;45.478;9.116;2022-10-22T01:32:16;99662.19;;;16.79;100.00
55576;BME280;41437;45.478;9.116;2022-10-22T01:35:23;99662.28;;;16.74;100.00
55576;BME280;41437;45.478;9.116;2022-10-22T01:38:28;99650.53;;;16.77;100.00
55576;BME280;41437;45.478;9.116;2022-10-22T01:41:30;99644.44;;;16.75;100.00
55576;BME280;41437;45.478;9.116;2022-10-22T01:44:34;99640.03;;;16.74;100.00
55576;BME280;41437;45.478;9.116;2022-10-22T01:47:41;99667.59;;;16.70;100.00
55576;BME280;41437;45.478;9.116;2022-10-22T01:50:52;99666.09;;;16.78;100.00
55576;BME280;41437;45.478;9.116;2022-10-22T01:54:00;99675.06;;;16.75;100.00
55576;BME280;41437;45.478;9.116;2022-10-22T01:57:08;99657.28;;;16.71;100.00
55576;BME280;41437;45.478;9.116;2022-10-22T02:00:16;99663.78;;;16.66;100.00
55576;BME280;41437;45.478;9.116;2022-10-22T02:03:24;99655.13;;;16.68;100.00
55576;BME280;41437;45.478;9.116;2022-10-22T02:06:31;99629.22;;;16.72;100.00
55576;BME280;41437;45.478;9.116;2022-10-22T02:09:34;99635.59;;;16.73;100.00
55576;BME280;41437;45.478;9.116;2022-10-22T02:12:37;99653.41;;;16.72;100.00
55576;BME280;41437;45.478;9.116;2022-10-22T02:15:43;99635.84;;;16.71;100.00
55576;BME280;41437;45.478;9.116;2022-10-22T02:18:48;99640.09;;;16.69;100.00
55576;BME280;41437;45.478;9.116;2022-10-22T02:21:52;99636.16;;;16.70;100.00
55576;BME280;41437;45.478;9.116;2022-10-22T02:24:55;99620.91;;;16.67;100.00
55576;BME280;41437;45.478;9.116;2022-10-22T02:28:01;99612.88;;;16.66;100.00
55576;BME280;41437;45.478;9.116;2022-10-22T02:31:10;99613.34;;;16.73;100.00
55576;BME280;41437;45.478;9.116;2022-10-22T02:34:17;99605.34;;;16.66;100.00
55576;BME280;41437;45.478;9.116;2022-10-22T02:37:21;99613.03;;;16.74;100.00
55576;BME280;41437;45.478;9.116;2022-10-22T02:40:25;99618.91;;;16.73;100.00
55576;BME280;41437;45.478;9.116;2022-10-22T02:43:28;99627.31;;;16.68;100.00
55576;BME280;41437;45.478;9.116;2022-10-22T02:46:32;99620.09;;;16.67;100.00
55576;BME280;41437;45.478;9.116;2022-10-22T02:49:33;99615.06;;;16.69;100.00
55576;BME280;41437;45.478;9.116;2022-10-22T02:52:35;99614.97;;;16.74;100.00
55576;BME280;41437;45.478;9.116;2022-10-22T02:55:37;99615.50;;;16.76;100.00
55576;BME280;41437;45.478;9.116;2022-10-22T02:58:38;99608.13;;;16.66;100.00
55576;BME280;41437;45.478;9.116;2022-10-22T03:01:42;99597.94;;;16.62;100.00
55576;BME280;41437;45.478;9.116;2022-10-22T03:04:46;99593.94;;;16.68;100.00
55576;BME280;41437;45.478;9.116;2022-10-22T03:07:48;99608.34;;;16.70;100.00
55576;BME280;41437;45.478;9.116;2022-10-22T03:10:50;99611.22;;;16.65;100.00
55576;BME280;41437;45.478;9.116;2022-10-22T03:13:51;99608.34;;;16.70;100.00
55576;BME280;41437;45.478;9.116;2022-10-22T03:16:54;99617.22;;;16.72;100.00
55576;BME280;41437;45.478;9.116;2022-10-22T03:19:56;99615.34;;;16.67;100.00
55576;BME280;41437;45.478;9.116;2022-10-22T03:23:01;99611.22;;;16.65;100.00
55576;BME280;41437;45.478;9.116;2022-10-22T03:26:04;99612.78;;;16.71;100.00
55576;BME280;41437;45.478;9.116;2022-10-22T03:29:07;99623.19;;;16.65;100.00
55576;BME280;41437;45.478;9.116;2022-10-22T03:32:12;99623.78;;;16.62;100.00
55576;BME280;41437;45.478;9.116;2022-10-22T03:35:14;99623.56;;;16.58;100.00
55576;BME280;41437;45.478;9.116;2022-10-22T03:38:15;99624.81;;;16.52;100.00
55576;BME280;41437;45.478;9.116;2022-10-22T03:41:17;99625.94;;;16.51;100.00
55576;BME280;41437;45.478;9.116;2022-10-22T03:44:19;99627.69;;;16.47;100.00
55576;BME280;41437;45.478;9.116;2022-10-22T03:47:23;99633.84;;;16.44;100.00
55576;BME280;41437;45.478;9.116;2022-10-22T03:50:25;99626.84;;;16.47;100.00
55576;BME280;41437;45.478;9.116;2022-10-22T03:53:29;99638.91;;;16.42;100.00
55576;BME280;41437;45.478;9.116;2022-10-22T03:56:46;99637.03;;;16.38;100.00
55576;BME280;41437;45.478;9.116;2022-10-22T03:59:47;99636.50;;;16.36;100.00
55576;BME280;41437;45.478;9.116;2022-10-22T04:02:51;99648.75;;;16.34;100.00
55576;BME280;41437;45.478;9.116;2022-10-22T04:05:53;99646.78;;;16.35;100.00
55576;BME280;41437;45.478;9.116;2022-10-22T04:08:54;99641.63;;;16.28;100.00
55576;BME280;41437;45.478;9.116;2022-10-22T04:11:56;99655.44;;;16.33;100.00
55576;BME280;41437;45.478;9.116;2022-10-22T04:14:58;99649.06;;;16.33;100.00
55576;BME280;41437;45.478;9.116;2022-10-22T04:18:01;99641.22;;;16.35;100.00
55576;BME280;41437;45.478;9.116;2022-10-22T04:21:03;99646.78;;;16.35;100.00
55576;BME280;41437;45.478;9.116;2022-10-22T04:24:05;99653.81;;;16.32;100.00
55576;BME280;41437;45.478;9.116;2022-10-22T04:27:07;99653.50;;;16.34;100.00
55576;BME280;41437;45.478;9.116;2022-10-22T04:30:09;99645.38;;;16.38;100.00
55576;BME280;41437;45.478;9.116;2022-10-22T04:33:12;99638.44;;;16.35;100.00
55576;BME280;41437;45.478;9.116;2022-10-22T04:36:15;99644.00;;;16.35;100.00
55576;BME280;41437;45.478;9.116;2022-10-22T04:39:17;99659.38;;;16.32;100.00
55576;BME280;41437;45.478;9.116;2022-10-22T04:42:19;99644.09;;;16.30;100.00
55576;BME280;41437;45.478;9.116;2022-10-22T04:45:21;99652.00;;;16.23;100.00
55576;BME280;41437;45.478;9.116;2022-10-22T04:48:24;99657.66;;;16.18;100.00
55576;BME280;41437;45.478;9.116;2022-10-22T04:51:26;99655.47;;;16.15;100.00
55576;BME280;41437;45.478;9.116;2022-10-22T04:54:28;99648.03;;;16.10;100.00
55576;BME280;41437;45.478;9.116;2022-10-22T04:57:30;99643.69;;;16.04;100.00
55576;BME280;41437;45.478;9.116;2022-10-22T05:00:32;99635.13;;;16.00;100.00
55576;BME280;41437;45.478;9.116;2022-10-22T05:03:35;99631.75;;;16.03;100.00
55576;BME280;41437;45.478;9.116;2022-10-22T05:06:36;99627.69;;;15.96;100.00
55576;BME280;41437;45.478;9.116;2022-10-22T05:09:38;99638.44;;;16.02;100.00
55576;BME280;41437;45.478;9.116;2022-10-22T05:12:42;99645.94;;;16.02;100.00
55576;BME280;41437;45.478;9.116;2022-10-22T05:15:43;99650.63;;;16.06;100.00
55576;BME280;41437;45.478;9.116;2022-10-22T05:18:46;99641.81;;;15.99;100.00
55576;BME280;41437;45.478;9.116;2022-10-22T05:21:48;99639.63;;;15.96;100.00
55576;BME280;41437;45.478;9.116;2022-10-22T05:24:50;99639.28;;;16.03;100.00
55576;BME280;41437;45.478;9.116;2022-10-22T05:27:51;99650.63;;;16.06;100.00
55576;BME280;41437;45.478;9.116;2022-10-22T05:30:53;99642.28;;;16.06;100.00
55576;BME280;41437;45.478;9.116;2022-10-22T05:33:56;99647.75;;;16.12;100.00
55576;BME280;41437;45.478;9.116;2022-10-22T05:36:58;99646.06;;;16.11;100.00
55576;BME280;41437;45.478;9.116;2022-10-22T05:40:01;99645.56;;;16.08;100.00
55576;BME280;41437;45.478;9.116;2022-10-22T05:43:02;99650.81;;;16.10;100.00
55576;BME280;41437;45.478;9.116;2022-10-22T05:46:06;99653.31;;;16.12;100.00
55576;BME280;41437;45.478;9.116;2022-10-22T05:49:14;99664.44;;;16.12;100.00
55576;BME280;41437;45.478;9.116;2022-10-22T05:52:16;99671.03;;;16.16;100.00
55576;BME280;41437;45.478;9.116;2022-10-22T05:55:18;99673.19;;;16.19;100.00
55576;BME280;41437;45.478;9.116;2022-10-22T05:58:19;99682.81;;;16.26;100.00
55576;BME280;41437;45.478;9.116;2022-10-22T06:01:23;99675.38;;;16.22;100.00
55576;BME280;41437;45.478;9.116;2022-10-22T06:04:26;99681.53;;;16.19;100.00
55576;BME280;41437;45.478;9.116;2022-10-22T06:07:28;99682.75;;;16.13;100.00
55576;BME280;41437;45.478;9.116;2022-10-22T06:10:29;99697.47;;;16.13;100.00
55576;BME280;41437;45.478;9.116;2022-10-22T06:13:31;99703.56;;;16.15;100.00
55576;BME280;41437;45.478;9.116;2022-10-22T06:16:33;99702.19;;;16.13;100.00
55576;BME280;41437;45.478;9.116;2022-10-22T06:19:36;99700.63;;;16.06;100.00
55576;BME280;41437;45.478;9.116;2022-10-22T06:22:37;99711.97;;;16.10;100.00
55576;BME280;41437;45.478;9.116;2022-10-22T06:25:39;99717.81;;;16.08;100.00
55576;BME280;41437;45.478;9.116;2022-10-22T06:28:42;99711.81;;;16.01;100.00
55576;BME280;41437;45.478;9.116;2022-10-22T06:31:44;99723.75;;;16.02;100.00
55576;BME280;41437;45.478;9.116;2022-10-22T06:34:47;99730.91;;;16.08;100.00
55576;BME280;41437;45.478;9.116;2022-10-22T06:37:49;99734.50;;;16.08;100.00
55576;BME280;41437;45.478;9.116;2022-10-22T06:40:52;99739.00;;;16.04;100.00
55576;BME280;41437;45.478;9.116;2022-10-22T06:43:54;99751.34;;;15.98;100.00
55576;BME280;41437;45.478;9.116;2022-10-22T06:46:56;99757.78;;;15.94;100.00
55576;BME280;41437;45.478;9.116;2022-10-22T06:50:00;99754.38;;;15.97;100.00
55576;BME280;41437;45.478;9.116;2022-10-22T06:53:01;99757.25;;;15.92;100.00
55576;BME280;41437;45.478;9.116;2022-10-22T06:56:04;99756.09;;;15.93;100.00
55576;BME280;41437;45.478;9.116;2022-10-22T06:59:06;99759.13;;;15.96;100.00
55576;BME280;41437;45.478;9.116;2022-10-22T07:02:08;99759.28;;;16.05;100.00
55576;BME280;41437;45.478;9.116;2022-10-22T07:05:11;99752.31;;;16.07;100.00
55576;BME280;41437;45.478;9.116;2022-10-22T07:08:13;99771.09;;;16.16;100.00
55576;BME280;41437;45.478;9.116;2022-10-22T07:11:17;99774.97;;;16.15;100.00
55576;BME280;41437;45.478;9.116;2022-10-22T07:14:19;99779.44;;;16.16;100.00
55576;BME280;41437;45.478;9.116;2022-10-22T07:17:20;99783.56;;;16.18;100.00
55576;BME280;41437;45.478;9.116;2022-10-22T07:20:23;99797.09;;;16.44;100.00
55576;BME280;41437;45.478;9.116;2022-10-22T07:23:25;99805.59;;;16.52;100.00
55576;BME280;41437;45.478;9.116;2022-10-22T07:26:28;99812.88;;;16.48;100.00
55576;BME280;41437;45.478;9.116;2022-10-22T07:29:32;99808.31;;;16.39;100.00
55576;BME280;41437;45.478;9.116;2022-10-22T07:32:34;99818.59;;;16.38;100.00
55576;BME280;41437;45.478;9.116;2022-10-22T07:35:38;99822.13;;;16.44;100.00
55576;BME280;41437;45.478;9.116;2022-10-22T07:38:39;99813.47;;;16.45;100.00
55576;BME280;41437;45.478;9.116;2022-10-22T07:41:41;99816.88;;;16.42;100.00
55576;BME280;41437;45.478;9.116;2022-10-22T07:44:43;99810.84;;;16.35;100.00
55576;BME280;41437;45.478;9.116;2022-10-22T07:47:46;99823.63;;;16.36;100.00
55576;BME280;41437;45.478;9.116;2022-10-22T07:50:50;99825.56;;;16.36;100.00
55576;BME280;41437;45.478;9.116;2022-10-22T07:53:51;99822.78;;;16.36;100.00
55576;BME280;41437;45.478;9.116;2022-10-22T07:56:53;99822.63;;;16.27;100.00
55576;BME280;41437;45.478;9.116;2022-10-22T07:59:55;99823.41;;;16.32;100.00
55576;BME280;41437;45.478;9.116;2022-10-22T08:03:01;99835.34;;;16.33;100.00
55576;BME280;41437;45.478;9.116;2022-10-22T08:06:04;99843.88;;;16.42;100.00
55576;BME280;41437;45.478;9.116;2022-10-22T08:09:06;99851.81;;;16.48;100.00
55576;BME280;41437;45.478;9.116;2022-10-22T08:12:08;99863.69;;;16.54;100.00
55576;BME280;41437;45.478;9.116;2022-10-22T08:15:09;99870.63;;;16.56;100.00
55576;BME280;41437;45.478;9.116;2022-10-22T08:18:11;99858.28;;;16.63;100.00
55576;BME280;41437;45.478;9.116;2022-10-22T08:21:14;99879.44;;;16.64;100.00
55576;BME280;41437;45.478;9.116;2022-10-22T08:24:16;99873.41;;;16.56;100.00
55576;BME280;41437;45.478;9.116;2022-10-22T08:27:18;99872.03;;;16.54;100.00
55576;BME280;41437;45.478;9.116;2022-10-22T08:30:20;99869.72;;;16.61;100.00
55576;BME280;41437;45.478;9.116;2022-10-22T08:33:21;99890.59;;;16.58;100.00
55576;BME280;41437;45.478;9.116;2022-10-22T08:36:24;99889.28;;;16.75;100.00
55576;BME280;41437;45.478;9.116;2022-10-22T08:39:26;99879.28;;;16.74;100.00
55576;BME280;41437;45.478;9.116;2022-10-22T08:42:54;99883.13;;;16.78;100.00
55576;BME280;41437;45.478;9.116;2022-10-22T08:46:14;99874.16;;;17.00;100.00
55576;BME280;41437;45.478;9.116;2022-10-22T08:49:20;99893.84;;;17.22;100.00
55576;BME280;41437;45.478;9.116;2022-10-22T08:52:25;99896.75;;;17.31;100.00
55576;BME280;41437;45.478;9.116;2022-10-22T08:55:27;99898.53;;;17.41;100.00
55576;BME280;41437;45.478;9.116;2022-10-22T08:58:35;99906.75;;;17.51;100.00
55576;BME280;41437;45.478;9.116;2022-10-22T09:01:43;99898.28;;;17.56;100.00
55576;BME280;41437;45.478;9.116;2022-10-22T09:04:50;99884.03;;;17.76;100.00
55576;BME280;41437;45.478;9.116;2022-10-22T09:07:56;99885.69;;;17.91;100.00
55576;BME280;41437;45.478;9.116;2022-10-22T09:11:02;99885.69;;;18.05;100.00
55576;BME280;41437;45.478;9.116;2022-10-22T09:14:11;99880.41;;;18.17;100.00
55576;BME280;41437;45.478;9.116;2022-10-22T09:17:19;99883.41;;;18.21;100.00
55576;BME280;41437;45.478;9.116;2022-10-22T09:20:27;99895.28;;;18.26;100.00
55576;BME280;41437;45.478;9.116;2022-10-22T09:23:38;99869.84;;;18.28;100.00
55576;BME280;41437;45.478;9.116;2022-10-22T09:26:47;99887.94;;;18.44;100.00
55576;BME280;41437;45.478;9.116;2022-10-22T09:29:49;99889.56;;;18.45;100.00
55576;BME280;41437;45.478;9.116;2022-10-22T09:32:54;99902.69;;;18.45;100.00
55576;BME280;41437;45.478;9.116;2022-10-22T09:36:00;99906.13;;;18.42;100.00
55576;BME280;41437;45.478;9.116;2022-10-22T09:39:20;99906.63;;;18.44;100.00
55576;BME280;41437;45.478;9.116;2022-10-22T09:42:22;99916.13;;;18.56;100.00
55576;BME280;41437;45.478;9.116;2022-10-22T09:45:25;99923.78;;;18.51;100.00
55576;BME280;41437;45.478;9.116;2022-10-22T09:48:29;99926.47;;;18.42;100.00
55576;BME280;41437;45.478;9.116;2022-10-22T09:51:44;99939.41;;;18.38;100.00
55576;BME280;41437;45.478;9.116;2022-10-22T09:54:51;99938.25;;;18.39;100.00
55576;BME280;41437;45.478;9.116;2022-10-22T09:57:53;99931.72;;;18.57;100.00
55576;BME280;41437;45.478;9.116;2022-10-22T10:00:57;99931.22;;;18.55;100.00
55576;BME280;41437;45.478;9.116;2022-10-22T10:04:01;99942.06;;;18.71;100.00
55576;BME280;41437;45.478;9.116;2022-10-22T10:07:14;99950.63;;;18.88;100.00
55576;BME280;41437;45.478;9.116;2022-10-22T10:10:20;99953.16;;;19.12;100.00
55576;BME280;41437;45.478;9.116;2022-10-22T10:13:48;99950.19;;;19.53;100.00
55576;BME280;41437;45.478;9.116;2022-10-22T10:16:57;99943.34;;;19.82;98.73
55576;BME280;41437;45.478;9.116;2022-10-22T10:20:12;99944.50;;;20.12;98.42
55576;BME280;41437;45.478;9.116;2022-10-22T10:23:21;99947.22;;;20.34;94.70
55576;BME280;41437;45.478;9.116;2022-10-22T10:26:33;99944.16;;;20.53;94.46
55576;BME280;41437;45.478;9.116;2022-10-22T10:29:42;99956.91;;;20.68;93.46
55576;BME280;41437;45.478;9.116;2022-10-22T10:32:59;99960.00;;;20.67;93.26
55576;BME280;41437;45.478;9.116;2022-10-22T10:36:10;99965.97;;;20.82;92.39
55576;BME280;41437;45.478;9.116;2022-10-22T10:39:19;99963.78;;;20.62;90.85
55576;BME280;41437;45.478;9.116;2022-10-22T10:42:31;99963.69;;;20.93;91.17
55576;BME280;41437;45.478;9.116;2022-10-22T10:45:41;99964.63;;;20.71;91.20
55576;BME280;41437;45.478;9.116;2022-10-22T10:48:52;99963.59;;;20.58;93.23
55576;BME280;41437;45.478;9.116;2022-10-22T10:52:01;99963.81;;;20.31;94.89
55576;BME280;41437;45.478;9.116;2022-10-22T10:55:13;99961.13;;;20.17;95.80
55576;BME280;41437;45.478;9.116;2022-10-22T10:58:24;99957.66;;;20.12;94.28
55576;BME280;41437;45.478;9.116;2022-10-22T11:01:38;99961.81;;;19.92;96.46
55576;BME280;41437;45.478;9.116;2022-10-22T11:05:02;99961.13;;;19.86;97.15
55576;BME280;41437;45.478;9.116;2022-10-22T11:08:13;99964.69;;;19.78;97.66
55576;BME280;41437;45.478;9.116;2022-10-22T11:11:20;99961.84;;;19.69;98.15
55576;BME280;41437;45.478;9.116;2022-10-22T11:14:29;99960.13;;;19.82;98.50
55576;BME280;41437;45.478;9.116;2022-10-22T11:17:37;99962.78;;;19.87;97.18
55576;BME280;41437;45.478;9.116;2022-10-22T11:20:49;99966.03;;;20.12;95.93
55576;BME280;41437;45.478;9.116;2022-10-22T11:23:55;99966.31;;;20.01;97.48
55576;BME280;41437;45.478;9.116;2022-10-22T11:27:06;99971.53;;;19.94;96.95
55576;BME280;41437;45.478;9.116;2022-10-22T11:30:13;99973.38;;;19.99;96.43
55576;BME280;41437;45.478;9.116;2022-10-22T11:33:17;99961.13;;;19.86;97.41
55576;BME280;41437;45.478;9.116;2022-10-22T11:36:21;99964.59;;;19.92;97.28
55576;BME280;41437;45.478;9.116;2022-10-22T11:39:38;99960.84;;;19.96;95.25
55576;BME280;41437;45.478;9.116;2022-10-22T11:42:45;99960.34;;;19.94;96.31
55576;BME280;41437;45.478;9.116;2022-10-22T11:45:56;99961.47;;;19.93;96.57
55576;BME280;41437;45.478;9.116;2022-10-22T11:49:04;99955.88;;;19.93;97.55
55576;BME280;41437;45.478;9.116;2022-10-22T11:52:24;99958.19;;;19.91;95.83
55576;BME280;41437;45.478;9.116;2022-10-22T11:55:30;99961.19;;;19.95;96.14
55576;BME280;41437;45.478;9.116;2022-10-22T11:58:38;99950.47;;;19.97;96.54
55576;BME280;41437;45.478;9.116;2022-10-22T12:01:46;99953.69;;;20.13;95.11
55576;BME280;41437;45.478;9.116;2022-10-22T12:04:48;99949.31;;;20.69;93.38
55576;BME280;41437;45.478;9.116;2022-10-22T12:07:53;99948.88;;;21.10;90.97
55576;BME280;41437;45.478;9.116;2022-10-22T12:11:06;99945.44;;;21.48;87.46
55576;BME280;41437;45.478;9.116;2022-10-22T12:14:16;99948.09;;;21.44;88.21
55576;BME280;41437;45.478;9.116;2022-10-22T12:17:21;99947.09;;;21.31;88.63
55576;BME280;41437;45.478;9.116;2022-10-22T12:20:24;99941.28;;;21.28;88.13
55576;BME280;41437;45.478;9.116;2022-10-22T12:23:29;99948.09;;;21.36;87.14
55576;BME280;41437;45.478;9.116;2022-10-22T12:26:32;99948.41;;;21.25;86.91
55576;BME280;41437;45.478;9.116;2022-10-22T12:29:34;99948.91;;;21.45;86.23
55576;BME280;41437;45.478;9.116;2022-10-22T12:32:38;99945.09;;;21.49;85.66
55576;BME280;41437;45.478;9.116;2022-10-22T12:35:43;99937.53;;;21.50;86.73
55576;BME280;41437;45.478;9.116;2022-10-22T12:38:45;99935.38;;;21.64;85.03
55576;BME280;41437;45.478;9.116;2022-10-22T12:41:47;99931.06;;;21.58;84.17
55576;BME280;41437;45.478;9.116;2022-10-22T12:44:54;99938.00;;;21.61;84.69
55576;BME280;41437;45.478;9.116;2022-10-22T12:47:58;99942.94;;;21.64;84.53
55576;BME280;41437;45.478;9.116;2022-10-22T12:51:03;99938.63;;;21.75;83.06
55576;BME280;41437;45.478;9.116;2022-10-22T12:54:12;99938.97;;;21.82;82.89
55576;BME280;41437;45.478;9.116;2022-10-22T12:57:16;99933.50;;;21.94;82.82
55576;BME280;41437;45.478;9.116;2022-10-22T13:00:21;99926.50;;;22.09;81.63
55576;BME280;41437;45.478;9.116;2022-10-22T13:03:29;99926.31;;;22.23;80.75
55576;BME280;41437;45.478;9.116;2022-10-22T13:06:32;99931.53;;;22.33;79.75
55576;BME280;41437;45.478;9.116;2022-10-22T13:09:38;99919.28;;;22.38;78.04
55576;BME280;41437;45.478;9.116;2022-10-22T13:12:43;99924.28;;;22.32;76.55
55576;BME280;41437;45.478;9.116;2022-10-22T13:15:49;99926.81;;;22.25;77.47
55576;BME280;41437;45.478;9.116;2022-10-22T13:18:53;99924.81;;;22.25;78.66
55576;BME280;41437;45.478;9.116;2022-10-22T13:21:55;99921.00;;;22.30;79.84
55576;BME280;41437;45.478;9.116;2022-10-22T13:24:58;99913.25;;;22.27;79.55
55576;BME280;41437;45.478;9.116;2022-10-22T13:28:02;99921.03;;;22.21;77.46
55576;BME280;41437;45.478;9.116;2022-10-22T13:31:16;99927.31;;;22.09;78.97
55576;BME280;41437;45.478;9.116;2022-10-22T13:34:20;99926.69;;;22.04;78.49
55576;BME280;41437;45.478;9.116;2022-10-22T13:37:23;99929.16;;;21.97;79.54
55576;BME280;41437;45.478;9.116;2022-10-22T13:40:25;99932.31;;;21.95;79.12
55576;BME280;41437;45.478;9.116;2022-10-22T13:43:27;99930.03;;;21.89;80.19
55576;BME280;41437;45.478;9.116;2022-10-22T13:46:30;99931.19;;;21.88;79.64
55576;BME280;41437;45.478;9.116;2022-10-22T13:49:33;99933.59;;;22.06;78.60
55576;BME280;41437;45.478;9.116;2022-10-22T13:52:35;99925.50;;;22.14;78.76
55576;BME280;41437;45.478;9.116;2022-10-22T13:55:38;99929.31;;;22.18;77.91
55576;BME280;41437;45.478;9.116;2022-10-22T13:58:41;99934.72;;;22.23;78.12
55576;BME280;41437;45.478;9.116;2022-10-22T14:01:43;99940.31;;;22.31;77.36
55576;BME280;41437;45.478;9.116;2022-10-22T14:04:48;99937.38;;;22.19;77.33
55576;BME280;41437;45.478;9.116;2022-10-22T14:07:50;99943.34;;;22.09;76.55
55576;BME280;41437;45.478;9.116;2022-10-22T14:10:52;99934.59;;;22.02;77.49
55576;BME280;41437;45.478;9.116;2022-10-22T14:13:54;99926.91;;;21.90;78.04
55576;BME280;41437;45.478;9.116;2022-10-22T14:16:55;99935.97;;;21.87;77.28
55576;BME280;41437;45.478;9.116;2022-10-22T14:19:59;99941.59;;;21.78;78.10
55576;BME280;41437;45.478;9.116;2022-10-22T14:23:10;99940.28;;;21.76;76.83
55576;BME280;41437;45.478;9.116;2022-10-22T14:26:21;99941.63;;;21.70;77.51
55576;BME280;41437;45.478;9.116;2022-10-22T14:29:23;99943.44;;;21.66;77.69
55576;BME280;41437;45.478;9.116;2022-10-22T14:32:26;99942.94;;;21.64;77.26
55576;BME280;41437;45.478;9.116;2022-10-22T14:35:30;99936.84;;;21.62;77.92
55576;BME280;41437;45.478;9.116;2022-10-22T14:38:31;99931.41;;;21.56;78.27
55576;BME280;41437;45.478;9.116;2022-10-22T14:41:33;99936.69;;;21.58;77.66
55576;BME280;41437;45.478;9.116;2022-10-22T14:44:35;99938.66;;;21.57;77.42
55576;BME280;41437;45.478;9.116;2022-10-22T14:47:36;99942.66;;;21.48;78.65
55576;BME280;41437;45.478;9.116;2022-10-22T14:50:40;99943.94;;;21.50;78.87
55576;BME280;41437;45.478;9.116;2022-10-22T14:53:42;99942.13;;;21.46;81.90
55576;BME280;41437;45.478;9.116;2022-10-22T14:56:44;99952.06;;;21.43;79.37
55576;BME280;41437;45.478;9.116;2022-10-22T14:59:46;99947.59;;;21.25;80.09
55576;BME280;41437;45.478;9.116;2022-10-22T15:02:48;99951.50;;;21.15;80.90
55576;BME280;41437;45.478;9.116;2022-10-22T15:05:51;99944.91;;;21.02;81.32
55576;BME280;41437;45.478;9.116;2022-10-22T15:08:55;99947.72;;;21.02;82.40
55576;BME280;41437;45.478;9.116;2022-10-22T15:11:56;99949.03;;;21.14;81.35
55576;BME280;41437;45.478;9.116;2022-10-22T15:14:58;99948.88;;;21.01;82.92
55576;BME280;41437;45.478;9.116;2022-10-22T15:18:00;99944.25;;;20.88;83.03
55576;BME280;41437;45.478;9.116;2022-10-22T15:21:05;99954.25;;;20.72;83.92
55576;BME280;41437;45.478;9.116;2022-10-22T15:24:07;99953.41;;;20.63;84.52
55576;BME280;41437;45.478;9.116;2022-10-22T15:27:09;99947.38;;;20.38;85.90
55576;BME280;41437;45.478;9.116;2022-10-22T15:30:12;99959.53;;;20.25;86.92
55576;BME280;41437;45.478;9.116;2022-10-22T15:33:14;99961.72;;;20.05;88.90
55576;BME280;41437;45.478;9.116;2022-10-22T15:36:17;99953.88;;;19.85;91.87
55576;BME280;41437;45.478;9.116;2022-10-22T15:39:19;99955.69;;;19.81;90.23
55576;BME280;41437;45.478;9.116;2022-10-22T15:42:21;99963.16;;;19.72;90.19
55576;BME280;41437;45.478;9.116;2022-10-22T15:45:23;99969.53;;;19.64;90.83
55576;BME280;41437;45.478;9.116;2022-10-22T15:48:25;99963.13;;;19.49;91.75
55576;BME280;41437;45.478;9.116;2022-10-22T15:51:28;99972.81;;;19.43;92.24
55576;BME280;41437;45.478;9.116;2022-10-22T15:54:30;99968.59;;;19.32;93.16
55576;BME280;41437;45.478;9.116;2022-10-22T15:57:32;99967.69;;;19.23;93.96
55576;BME280;41437;45.478;9.116;2022-10-22T16:00:34;99963.19;;;19.13;96.15
55576;BME280;41437;45.478;9.116;2022-10-22T16:03:36;99964.66;;;18.97;96.61
55576;BME280;41437;45.478;9.116;2022-10-22T16:06:42;99978.75;;;18.92;96.79
55576;BME280;41437;45.478;9.116;2022-10-22T16:09:44;99973.59;;;18.85;97.80